sensor_id;sensor_type;location;lat;lon;timestamp;P1;durP1;ratioP1;P2;durP2;ratioP2
2542;SDS011;1116;51.502;7.414;2023-04-29T00:00:11;23.20;;;17.17;;
2542;SDS011;1116;51.502;7.414;2023-04-29T00:02:43;22.90;;;18.03;;
2542;SDS011;1116;51.502;7.414;2023-04-29T00:05:14;24.37;;;19.60;;
2542;SDS011;1116;51.502;7.414;2023-04-29T00:07:48;27.07;;;19.60;;
2542;SDS011;1116;51.502;7.414;2023-04-29T00:10:19;29.60;;;21.60;;
2542;SDS011;1116;51.502;7.414;2023-04-29T00:12:50;28.13;;;21.40;;
2542;SDS011;1116;51.502;7.414;2023-04-29T00:15:21;30.90;;;23.70;;
2542;SDS011;1116;51.502;7.414;2023-04-29T00:17:52;30.90;;;23.80;;
2542;SDS011;1116;51.502;7.414;2023-04-29T00:20:23;34.30;;;24.43;;
2542;SDS011;1116;51.502;7.414;2023-04-29T00:22:57;30.60;;;24.07;;
2542;SDS011;1116;51.502;7.414;2023-04-29T00:25:28;35.23;;;24.40;;
2542;SDS011;1116;51.502;7.414;2023-04-29T00:27:59;35.77;;;26.57;;
2542;SDS011;1116;51.502;7.414;2023-04-29T00:30:31;34.00;;;24.77;;
2542;SDS011;1116;51.502;7.414;2023-04-29T00:33:03;34.73;;;24.70;;
2542;SDS011;1116;51.502;7.414;2023-04-29T00:35:34;31.43;;;24.33;;
2542;SDS011;1116;51.502;7.414;2023-04-29T00:38:07;36.03;;;24.50;;
2542;SDS011;1116;51.502;7.414;2023-04-29T00:40:38;37.13;;;26.00;;
2542;SDS011;1116;51.502;7.414;2023-04-29T00:43:10;41.57;;;25.00;;
2542;SDS011;1116;51.502;7.414;2023-04-29T00:45:44;39.37;;;25.57;;
2542;SDS011;1116;51.502;7.414;2023-04-29T00:48:15;37.63;;;25.30;;
2542;SDS011;1116;51.502;7.414;2023-04-29T00:50:46;39.10;;;25.27;;
2542;SDS011;1116;51.502;7.414;2023-04-29T00:53:20;35.43;;;24.77;;
2542;SDS011;1116;51.502;7.414;2023-04-29T00:55:51;36.03;;;25.80;;
2542;SDS011;1116;51.502;7.414;2023-04-29T00:58:23;38.30;;;25.87;;
2542;SDS011;1116;51.502;7.414;2023-04-29T01:01:00;36.20;;;24.53;;
2542;SDS011;1116;51.502;7.414;2023-04-29T01:03:31;38.00;;;25.70;;
2542;SDS011;1116;51.502;7.414;2023-04-29T01:06:06;37.87;;;25.27;;
2542;SDS011;1116;51.502;7.414;2023-04-29T01:08:51;38.10;;;24.87;;
2542;SDS011;1116;51.502;7.414;2023-04-29T01:11:38;37.50;;;25.37;;
2542;SDS011;1116;51.502;7.414;2023-04-29T01:14:18;39.10;;;25.37;;
2542;SDS011;1116;51.502;7.414;2023-04-29T01:16:51;38.37;;;24.40;;
2542;SDS011;1116;51.502;7.414;2023-04-29T01:19:27;40.10;;;25.80;;
2542;SDS011;1116;51.502;7.414;2023-04-29T01:22:09;39.80;;;25.43;;
2542;SDS011;1116;51.502;7.414;2023-04-29T01:24:43;35.73;;;24.10;;
2542;SDS011;1116;51.502;7.414;2023-04-29T01:27:20;39.77;;;26.20;;
2542;SDS011;1116;51.502;7.414;2023-04-29T01:29:58;42.60;;;26.80;;
2542;SDS011;1116;51.502;7.414;2023-04-29T01:32:40;43.20;;;28.50;;
2542;SDS011;1116;51.502;7.414;2023-04-29T01:35:25;49.23;;;28.60;;
2542;SDS011;1116;51.502;7.414;2023-04-29T01:38:10;46.63;;;27.53;;
2542;SDS011;1116;51.502;7.414;2023-04-29T01:40:52;51.47;;;30.50;;
2542;SDS011;1116;51.502;7.414;2023-04-29T01:43:29;57.90;;;30.63;;
2542;SDS011;1116;51.502;7.414;2023-04-29T01:46:04;56.07;;;30.53;;
2542;SDS011;1116;51.502;7.414;2023-04-29T01:48:37;54.93;;;29.47;;
2542;SDS011;1116;51.502;7.414;2023-04-29T01:51:09;54.73;;;32.13;;
2542;SDS011;1116;51.502;7.414;2023-04-29T01:53:40;59.47;;;33.10;;
2542;SDS011;1116;51.502;7.414;2023-04-29T01:56:14;65.27;;;35.27;;
2542;SDS011;1116;51.502;7.414;2023-04-29T01:58:45;61.23;;;34.40;;
2542;SDS011;1116;51.502;7.414;2023-04-29T02:01:16;69.43;;;36.37;;
2542;SDS011;1116;51.502;7.414;2023-04-29T02:03:47;62.90;;;35.33;;
2542;SDS011;1116;51.502;7.414;2023-04-29T02:06:18;62.97;;;33.17;;
2542;SDS011;1116;51.502;7.414;2023-04-29T02:08:52;65.67;;;36.40;;
2542;SDS011;1116;51.502;7.414;2023-04-29T02:11:26;63.63;;;35.23;;
2542;SDS011;1116;51.502;7.414;2023-04-29T02:13:57;67.83;;;35.90;;
2542;SDS011;1116;51.502;7.414;2023-04-29T02:16:28;70.47;;;34.07;;
2542;SDS011;1116;51.502;7.414;2023-04-29T02:18:58;71.17;;;34.10;;
2542;SDS011;1116;51.502;7.414;2023-04-29T02:21:29;82.60;;;38.50;;
2542;SDS011;1116;51.502;7.414;2023-04-29T02:24:01;66.57;;;34.50;;
2542;SDS011;1116;51.502;7.414;2023-04-29T02:26:35;74.17;;;36.00;;
2542;SDS011;1116;51.502;7.414;2023-04-29T02:29:06;75.23;;;35.87;;
2542;SDS011;1116;51.502;7.414;2023-04-29T02:31:37;67.07;;;35.50;;
2542;SDS011;1116;51.502;7.414;2023-04-29T02:34:08;74.53;;;36.50;;
2542;SDS011;1116;51.502;7.414;2023-04-29T02:36:38;72.33;;;35.67;;
2542;SDS011;1116;51.502;7.414;2023-04-29T02:39:15;69.13;;;34.73;;
2542;SDS011;1116;51.502;7.414;2023-04-29T02:41:49;73.93;;;36.10;;
2542;SDS011;1116;51.502;7.414;2023-04-29T02:44:23;64.30;;;35.20;;
2542;SDS011;1116;51.502;7.414;2023-04-29T02:46:55;68.57;;;35.63;;
2542;SDS011;1116;51.502;7.414;2023-04-29T02:49:26;63.00;;;33.43;;
2542;SDS011;1116;51.502;7.414;2023-04-29T02:51:56;56.10;;;31.90;;
2542;SDS011;1116;51.502;7.414;2023-04-29T02:54:28;59.20;;;32.37;;
2542;SDS011;1116;51.502;7.414;2023-04-29T02:57:01;60.80;;;32.60;;
2542;SDS011;1116;51.502;7.414;2023-04-29T02:59:32;59.50;;;30.70;;
2542;SDS011;1116;51.502;7.414;2023-04-29T03:02:03;53.00;;;31.20;;
2542;SDS011;1116;51.502;7.414;2023-04-29T03:04:35;52.07;;;29.87;;
2542;SDS011;1116;51.502;7.414;2023-04-29T03:07:06;55.77;;;29.93;;
2542;SDS011;1116;51.502;7.414;2023-04-29T03:09:37;52.00;;;27.40;;
2542;SDS011;1116;51.502;7.414;2023-04-29T03:12:10;48.20;;;28.07;;
2542;SDS011;1116;51.502;7.414;2023-04-29T03:14:43;53.43;;;28.07;;
2542;SDS011;1116;51.502;7.414;2023-04-29T03:17:14;49.87;;;27.77;;
2542;SDS011;1116;51.502;7.414;2023-04-29T03:19:45;50.33;;;28.00;;
2542;SDS011;1116;51.502;7.414;2023-04-29T03:22:16;45.73;;;25.17;;
2542;SDS011;1116;51.502;7.414;2023-04-29T03:24:46;49.67;;;27.87;;
2542;SDS011;1116;51.502;7.414;2023-04-29T03:27:20;48.50;;;24.90;;
2542;SDS011;1116;51.502;7.414;2023-04-29T03:29:51;46.27;;;27.13;;
2542;SDS011;1116;51.502;7.414;2023-04-29T03:32:22;47.47;;;24.90;;
2542;SDS011;1116;51.502;7.414;2023-04-29T03:34:53;40.77;;;23.63;;
2542;SDS011;1116;51.502;7.414;2023-04-29T03:37:24;39.37;;;23.20;;
2542;SDS011;1116;51.502;7.414;2023-04-29T03:39:55;40.00;;;24.40;;
2542;SDS011;1116;51.502;7.414;2023-04-29T03:42:29;36.73;;;22.87;;
2542;SDS011;1116;51.502;7.414;2023-04-29T03:45:00;41.47;;;24.20;;
2542;SDS011;1116;51.502;7.414;2023-04-29T03:47:30;39.13;;;23.00;;
2542;SDS011;1116;51.502;7.414;2023-04-29T03:50:03;35.80;;;22.90;;
2542;SDS011;1116;51.502;7.414;2023-04-29T03:52:34;36.60;;;21.87;;
2542;SDS011;1116;51.502;7.414;2023-04-29T03:55:06;42.43;;;23.80;;
2542;SDS011;1116;51.502;7.414;2023-04-29T03:57:40;36.00;;;23.73;;
2542;SDS011;1116;51.502;7.414;2023-04-29T04:00:12;35.50;;;22.43;;
2542;SDS011;1116;51.502;7.414;2023-04-29T04:02:43;37.60;;;23.37;;
2542;SDS011;1116;51.502;7.414;2023-04-29T04:05:17;42.20;;;24.17;;
2542;SDS011;1116;51.502;7.414;2023-04-29T04:07:51;38.83;;;23.00;;
2542;SDS011;1116;51.502;7.414;2023-04-29T04:10:23;38.33;;;23.07;;
2542;SDS011;1116;51.502;7.414;2023-04-29T04:13:00;38.33;;;24.07;;
2542;SDS011;1116;51.502;7.414;2023-04-29T04:15:38;39.07;;;23.97;;
2542;SDS011;1116;51.502;7.414;2023-04-29T04:18:08;35.90;;;22.37;;
2542;SDS011;1116;51.502;7.414;2023-04-29T04:20:39;38.07;;;24.30;;
2542;SDS011;1116;51.502;7.414;2023-04-29T04:23:10;40.67;;;24.03;;
2542;SDS011;1116;51.502;7.414;2023-04-29T04:25:43;40.83;;;24.90;;
2542;SDS011;1116;51.502;7.414;2023-04-29T04:28:18;38.43;;;23.97;;
2542;SDS011;1116;51.502;7.414;2023-04-29T04:30:52;44.10;;;24.90;;
2542;SDS011;1116;51.502;7.414;2023-04-29T04:33:23;41.20;;;24.20;;
2542;SDS011;1116;51.502;7.414;2023-04-29T04:36:00;40.27;;;24.03;;
2542;SDS011;1116;51.502;7.414;2023-04-29T04:38:31;41.90;;;23.87;;
2542;SDS011;1116;51.502;7.414;2023-04-29T04:41:04;36.03;;;23.33;;
2542;SDS011;1116;51.502;7.414;2023-04-29T04:43:38;42.50;;;22.93;;
2542;SDS011;1116;51.502;7.414;2023-04-29T04:46:10;39.00;;;21.67;;
2542;SDS011;1116;51.502;7.414;2023-04-29T04:48:42;37.10;;;22.13;;
2542;SDS011;1116;51.502;7.414;2023-04-29T04:51:16;31.80;;;23.00;;
2542;SDS011;1116;51.502;7.414;2023-04-29T04:53:47;38.10;;;24.30;;
2542;SDS011;1116;51.502;7.414;2023-04-29T04:56:18;35.27;;;20.97;;
2542;SDS011;1116;51.502;7.414;2023-04-29T04:58:51;38.00;;;23.53;;
2542;SDS011;1116;51.502;7.414;2023-04-29T05:01:22;33.27;;;22.17;;
2542;SDS011;1116;51.502;7.414;2023-04-29T05:03:53;36.60;;;23.73;;
2542;SDS011;1116;51.502;7.414;2023-04-29T05:06:24;36.47;;;21.90;;
2542;SDS011;1116;51.502;7.414;2023-04-29T05:08:55;36.53;;;23.23;;
2542;SDS011;1116;51.502;7.414;2023-04-29T05:11:26;36.37;;;23.50;;
2542;SDS011;1116;51.502;7.414;2023-04-29T05:14:00;36.20;;;23.60;;
2542;SDS011;1116;51.502;7.414;2023-04-29T05:16:31;36.23;;;23.90;;
2542;SDS011;1116;51.502;7.414;2023-04-29T05:19:02;36.60;;;22.30;;
2542;SDS011;1116;51.502;7.414;2023-04-29T05:21:33;33.70;;;22.73;;
2542;SDS011;1116;51.502;7.414;2023-04-29T05:24:04;34.43;;;23.73;;
2542;SDS011;1116;51.502;7.414;2023-04-29T05:26:35;36.47;;;23.80;;
2542;SDS011;1116;51.502;7.414;2023-04-29T05:29:09;35.40;;;25.00;;
2542;SDS011;1116;51.502;7.414;2023-04-29T05:31:40;34.20;;;23.43;;
2542;SDS011;1116;51.502;7.414;2023-04-29T05:34:14;37.60;;;25.10;;
2542;SDS011;1116;51.502;7.414;2023-04-29T05:36:45;37.90;;;24.07;;
2542;SDS011;1116;51.502;7.414;2023-04-29T05:39:16;32.80;;;25.07;;
2542;SDS011;1116;51.502;7.414;2023-04-29T05:41:47;35.83;;;23.43;;
2542;SDS011;1116;51.502;7.414;2023-04-29T05:44:20;33.53;;;24.07;;
2542;SDS011;1116;51.502;7.414;2023-04-29T05:46:51;34.80;;;24.90;;
2542;SDS011;1116;51.502;7.414;2023-04-29T05:49:23;34.37;;;23.83;;
2542;SDS011;1116;51.502;7.414;2023-04-29T05:51:57;34.87;;;25.20;;
2542;SDS011;1116;51.502;7.414;2023-04-29T05:54:30;35.10;;;23.97;;
2542;SDS011;1116;51.502;7.414;2023-04-29T05:57:01;34.60;;;25.10;;
2542;SDS011;1116;51.502;7.414;2023-04-29T05:59:35;33.53;;;23.93;;
2542;SDS011;1116;51.502;7.414;2023-04-29T06:02:06;33.10;;;23.20;;
2542;SDS011;1116;51.502;7.414;2023-04-29T06:04:38;34.00;;;23.60;;
2542;SDS011;1116;51.502;7.414;2023-04-29T06:07:10;30.93;;;22.93;;
2542;SDS011;1116;51.502;7.414;2023-04-29T06:09:41;33.30;;;24.30;;
2542;SDS011;1116;51.502;7.414;2023-04-29T06:12:12;32.93;;;23.37;;
2542;SDS011;1116;51.502;7.414;2023-04-29T06:14:46;29.60;;;22.33;;
2542;SDS011;1116;51.502;7.414;2023-04-29T06:17:17;31.67;;;23.47;;
2542;SDS011;1116;51.502;7.414;2023-04-29T06:19:48;30.73;;;23.03;;
2542;SDS011;1116;51.502;7.414;2023-04-29T06:22:19;31.90;;;22.87;;
2542;SDS011;1116;51.502;7.414;2023-04-29T06:24:51;31.83;;;24.03;;
2542;SDS011;1116;51.502;7.414;2023-04-29T06:27:26;31.67;;;22.43;;
2542;SDS011;1116;51.502;7.414;2023-04-29T06:30:00;33.30;;;23.37;;
2542;SDS011;1116;51.502;7.414;2023-04-29T06:32:31;28.83;;;22.83;;
2542;SDS011;1116;51.502;7.414;2023-04-29T06:35:02;30.80;;;23.83;;
2542;SDS011;1116;51.502;7.414;2023-04-29T06:37:33;32.90;;;23.47;;
2542;SDS011;1116;51.502;7.414;2023-04-29T06:40:05;32.30;;;23.70;;
2542;SDS011;1116;51.502;7.414;2023-04-29T06:42:37;32.00;;;24.10;;
2542;SDS011;1116;51.502;7.414;2023-04-29T06:45:10;35.70;;;25.30;;
2542;SDS011;1116;51.502;7.414;2023-04-29T06:47:44;33.13;;;23.93;;
2542;SDS011;1116;51.502;7.414;2023-04-29T06:50:15;30.17;;;24.10;;
2542;SDS011;1116;51.502;7.414;2023-04-29T06:52:46;30.63;;;23.57;;
2542;SDS011;1116;51.502;7.414;2023-04-29T06:55:17;34.93;;;24.83;;
2542;SDS011;1116;51.502;7.414;2023-04-29T06:57:48;28.27;;;22.53;;
2542;SDS011;1116;51.502;7.414;2023-04-29T07:00:22;32.97;;;24.20;;
2542;SDS011;1116;51.502;7.414;2023-04-29T07:02:53;29.60;;;22.77;;
2542;SDS011;1116;51.502;7.414;2023-04-29T07:05:24;29.30;;;22.80;;
2542;SDS011;1116;51.502;7.414;2023-04-29T07:07:55;29.20;;;22.00;;
2542;SDS011;1116;51.502;7.414;2023-04-29T07:10:26;31.80;;;22.20;;
2542;SDS011;1116;51.502;7.414;2023-04-29T07:12:57;30.80;;;23.67;;
2542;SDS011;1116;51.502;7.414;2023-04-29T07:15:32;33.30;;;24.80;;
2542;SDS011;1116;51.502;7.414;2023-04-29T07:18:05;36.00;;;24.93;;
2542;SDS011;1116;51.502;7.414;2023-04-29T07:20:36;31.90;;;22.97;;
2542;SDS011;1116;51.502;7.414;2023-04-29T07:23:07;34.00;;;23.60;;
2542;SDS011;1116;51.502;7.414;2023-04-29T07:25:38;32.67;;;22.63;;
2542;SDS011;1116;51.502;7.414;2023-04-29T07:28:09;36.27;;;24.37;;
2542;SDS011;1116;51.502;7.414;2023-04-29T07:30:43;29.83;;;23.23;;
2542;SDS011;1116;51.502;7.414;2023-04-29T07:33:14;31.90;;;23.77;;
2542;SDS011;1116;51.502;7.414;2023-04-29T07:35:45;31.93;;;23.63;;
2542;SDS011;1116;51.502;7.414;2023-04-29T07:38:16;31.30;;;23.40;;
2542;SDS011;1116;51.502;7.414;2023-04-29T07:40:50;34.00;;;24.40;;
2542;SDS011;1116;51.502;7.414;2023-04-29T07:43:21;30.40;;;22.80;;
2542;SDS011;1116;51.502;7.414;2023-04-29T07:45:56;33.30;;;24.23;;
2542;SDS011;1116;51.502;7.414;2023-04-29T07:48:29;39.43;;;24.87;;
2542;SDS011;1116;51.502;7.414;2023-04-29T07:51:00;38.80;;;26.70;;
2542;SDS011;1116;51.502;7.414;2023-04-29T07:53:31;36.73;;;26.53;;
2542;SDS011;1116;51.502;7.414;2023-04-29T07:56:03;38.17;;;26.37;;
2542;SDS011;1116;51.502;7.414;2023-04-29T07:58:35;41.90;;;27.67;;
2542;SDS011;1116;51.502;7.414;2023-04-29T08:01:09;36.67;;;25.17;;
2542;SDS011;1116;51.502;7.414;2023-04-29T08:03:42;41.40;;;27.67;;
2542;SDS011;1116;51.502;7.414;2023-04-29T08:06:13;45.77;;;28.47;;
2542;SDS011;1116;51.502;7.414;2023-04-29T08:08:47;52.10;;;28.97;;
2542;SDS011;1116;51.502;7.414;2023-04-29T08:11:19;45.37;;;28.53;;
2542;SDS011;1116;51.502;7.414;2023-04-29T08:13:51;43.30;;;29.60;;
2542;SDS011;1116;51.502;7.414;2023-04-29T08:16:26;42.50;;;28.27;;
2542;SDS011;1116;51.502;7.414;2023-04-29T08:18:59;48.33;;;30.23;;
2542;SDS011;1116;51.502;7.414;2023-04-29T08:21:30;43.13;;;27.27;;
2542;SDS011;1116;51.502;7.414;2023-04-29T08:24:01;45.60;;;29.93;;
2542;SDS011;1116;51.502;7.414;2023-04-29T08:26:32;44.53;;;29.33;;
2542;SDS011;1116;51.502;7.414;2023-04-29T08:29:05;44.67;;;29.40;;
2542;SDS011;1116;51.502;7.414;2023-04-29T08:31:39;49.87;;;30.07;;
2542;SDS011;1116;51.502;7.414;2023-04-29T08:34:10;43.43;;;28.43;;
2542;SDS011;1116;51.502;7.414;2023-04-29T08:36:41;47.27;;;28.50;;
2542;SDS011;1116;51.502;7.414;2023-04-29T08:39:12;48.10;;;30.90;;
2542;SDS011;1116;51.502;7.414;2023-04-29T08:41:44;55.17;;;31.63;;
2542;SDS011;1116;51.502;7.414;2023-04-29T08:44:17;47.07;;;31.23;;
2542;SDS011;1116;51.502;7.414;2023-04-29T08:46:51;53.17;;;31.10;;
2542;SDS011;1116;51.502;7.414;2023-04-29T08:49:23;50.47;;;31.70;;
2542;SDS011;1116;51.502;7.414;2023-04-29T08:51:54;51.80;;;31.40;;
2542;SDS011;1116;51.502;7.414;2023-04-29T08:54:25;53.63;;;34.40;;
2542;SDS011;1116;51.502;7.414;2023-04-29T08:56:56;55.60;;;31.90;;
2542;SDS011;1116;51.502;7.414;2023-04-29T08:59:29;55.17;;;30.90;;
2542;SDS011;1116;51.502;7.414;2023-04-29T09:02:03;58.83;;;34.27;;
2542;SDS011;1116;51.502;7.414;2023-04-29T09:04:44;52.40;;;32.03;;
2542;SDS011;1116;51.502;7.414;2023-04-29T09:07:17;56.47;;;32.33;;
2542;SDS011;1116;51.502;7.414;2023-04-29T09:09:49;55.73;;;33.77;;
2542;SDS011;1116;51.502;7.414;2023-04-29T09:12:22;55.87;;;33.77;;
2542;SDS011;1116;51.502;7.414;2023-04-29T09:14:53;52.50;;;33.93;;
2542;SDS011;1116;51.502;7.414;2023-04-29T09:20:24;56.97;;;32.27;;
2542;SDS011;1116;51.502;7.414;2023-04-29T09:22:58;49.07;;;31.50;;
2542;SDS011;1116;51.502;7.414;2023-04-29T09:25:30;53.20;;;33.73;;
2542;SDS011;1116;51.502;7.414;2023-04-29T09:28:13;48.43;;;30.80;;
2542;SDS011;1116;51.502;7.414;2023-04-29T09:30:45;50.07;;;31.20;;
2542;SDS011;1116;51.502;7.414;2023-04-29T09:33:19;51.00;;;30.50;;
2542;SDS011;1116;51.502;7.414;2023-04-29T09:35:54;48.37;;;31.37;;
2542;SDS011;1116;51.502;7.414;2023-04-29T09:38:26;42.77;;;29.00;;
2542;SDS011;1116;51.502;7.414;2023-04-29T09:40:57;47.77;;;33.20;;
2542;SDS011;1116;51.502;7.414;2023-04-29T09:43:28;47.50;;;30.30;;
2542;SDS011;1116;51.502;7.414;2023-04-29T09:45:59;47.23;;;31.77;;
2542;SDS011;1116;51.502;7.414;2023-04-29T09:48:33;43.03;;;30.87;;
2542;SDS011;1116;51.502;7.414;2023-04-29T09:51:04;46.37;;;31.53;;
2542;SDS011;1116;51.502;7.414;2023-04-29T09:53:35;41.40;;;30.17;;
2542;SDS011;1116;51.502;7.414;2023-04-29T09:56:06;42.03;;;28.67;;
2542;SDS011;1116;51.502;7.414;2023-04-29T09:58:37;39.13;;;28.70;;
2542;SDS011;1116;51.502;7.414;2023-04-29T10:01:08;40.40;;;28.47;;
2542;SDS011;1116;51.502;7.414;2023-04-29T10:03:43;36.63;;;27.60;;
2542;SDS011;1116;51.502;7.414;2023-04-29T10:06:15;42.77;;;29.97;;
2542;SDS011;1116;51.502;7.414;2023-04-29T10:08:47;39.77;;;29.60;;
2542;SDS011;1116;51.502;7.414;2023-04-29T10:11:19;39.87;;;30.17;;
2542;SDS011;1116;51.502;7.414;2023-04-29T10:13:50;39.00;;;27.27;;
2542;SDS011;1116;51.502;7.414;2023-04-29T10:16:22;38.03;;;28.20;;
2542;SDS011;1116;51.502;7.414;2023-04-29T10:19:02;38.70;;;28.20;;
2542;SDS011;1116;51.502;7.414;2023-04-29T10:21:36;37.80;;;28.73;;
2542;SDS011;1116;51.502;7.414;2023-04-29T10:24:07;37.40;;;28.63;;
2542;SDS011;1116;51.502;7.414;2023-04-29T10:26:41;35.70;;;27.97;;
2542;SDS011;1116;51.502;7.414;2023-04-29T10:29:13;34.90;;;28.17;;
2542;SDS011;1116;51.502;7.414;2023-04-29T10:31:46;33.40;;;27.40;;
2542;SDS011;1116;51.502;7.414;2023-04-29T10:34:21;38.50;;;29.30;;
2542;SDS011;1116;51.502;7.414;2023-04-29T10:36:53;34.50;;;27.00;;
2542;SDS011;1116;51.502;7.414;2023-04-29T10:39:26;37.27;;;27.30;;
2542;SDS011;1116;51.502;7.414;2023-04-29T10:42:05;32.60;;;26.03;;
2542;SDS011;1116;51.502;7.414;2023-04-29T10:51:02;29.13;;;23.80;;
2542;SDS011;1116;51.502;7.414;2023-04-29T10:53:33;27.30;;;23.60;;
2542;SDS011;1116;51.502;7.414;2023-04-29T10:56:07;29.57;;;25.03;;
2542;SDS011;1116;51.502;7.414;2023-04-29T10:58:42;29.57;;;24.90;;
2542;SDS011;1116;51.502;7.414;2023-04-29T11:01:14;27.63;;;24.57;;
2542;SDS011;1116;51.502;7.414;2023-04-29T11:03:50;30.70;;;26.23;;
2542;SDS011;1116;51.502;7.414;2023-04-29T11:06:39;26.87;;;23.97;;
2542;SDS011;1116;51.502;7.414;2023-04-29T11:09:13;28.17;;;23.07;;
2542;SDS011;1116;51.502;7.414;2023-04-29T11:11:56;28.43;;;24.17;;
2542;SDS011;1116;51.502;7.414;2023-04-29T11:14:30;25.10;;;22.33;;
2542;SDS011;1116;51.502;7.414;2023-04-29T11:17:06;24.73;;;22.20;;
2542;SDS011;1116;51.502;7.414;2023-04-29T11:19:39;25.10;;;22.40;;
2542;SDS011;1116;51.502;7.414;2023-04-29T11:22:24;23.87;;;21.27;;
2542;SDS011;1116;51.502;7.414;2023-04-29T11:24:57;22.83;;;19.83;;
2542;SDS011;1116;51.502;7.414;2023-04-29T11:27:29;26.33;;;21.83;;
2542;SDS011;1116;51.502;7.414;2023-04-29T11:30:02;26.83;;;21.90;;
2542;SDS011;1116;51.502;7.414;2023-04-29T11:32:38;23.83;;;21.37;;
2542;SDS011;1116;51.502;7.414;2023-04-29T11:35:10;23.83;;;21.23;;
2542;SDS011;1116;51.502;7.414;2023-04-29T11:37:45;25.43;;;21.80;;
2542;SDS011;1116;51.502;7.414;2023-04-29T11:40:16;24.43;;;21.87;;
2542;SDS011;1116;51.502;7.414;2023-04-29T11:42:47;27.40;;;22.20;;
2542;SDS011;1116;51.502;7.414;2023-04-29T11:45:21;20.60;;;17.90;;
2542;SDS011;1116;51.502;7.414;2023-04-29T11:47:53;22.90;;;18.90;;
2542;SDS011;1116;51.502;7.414;2023-04-29T11:50:24;20.70;;;18.57;;
2542;SDS011;1116;51.502;7.414;2023-04-29T11:52:57;20.27;;;18.03;;
2542;SDS011;1116;51.502;7.414;2023-04-29T11:55:28;20.83;;;18.67;;
2542;SDS011;1116;51.502;7.414;2023-04-29T11:57:59;19.60;;;17.53;;
2542;SDS011;1116;51.502;7.414;2023-04-29T12:00:30;22.40;;;17.90;;
2542;SDS011;1116;51.502;7.414;2023-04-29T12:03:06;20.27;;;17.20;;
2542;SDS011;1116;51.502;7.414;2023-04-29T12:05:45;18.90;;;16.87;;
2542;SDS011;1116;51.502;7.414;2023-04-29T12:08:21;18.23;;;16.40;;
2542;SDS011;1116;51.502;7.414;2023-04-29T12:10:53;19.43;;;17.40;;
2542;SDS011;1116;51.502;7.414;2023-04-29T12:13:26;19.83;;;17.73;;
2542;SDS011;1116;51.502;7.414;2023-04-29T12:15:58;18.00;;;16.10;;
2542;SDS011;1116;51.502;7.414;2023-04-29T12:18:30;18.67;;;16.43;;
2542;SDS011;1116;51.502;7.414;2023-04-29T12:21:01;16.47;;;14.63;;
2542;SDS011;1116;51.502;7.414;2023-04-29T12:23:34;18.63;;;15.37;;
2542;SDS011;1116;51.502;7.414;2023-04-29T12:26:06;16.70;;;14.90;;
2542;SDS011;1116;51.502;7.414;2023-04-29T12:28:37;16.50;;;14.87;;
2542;SDS011;1116;51.502;7.414;2023-04-29T12:31:10;15.90;;;14.40;;
2542;SDS011;1116;51.502;7.414;2023-04-29T12:33:44;16.73;;;15.20;;
2542;SDS011;1116;51.502;7.414;2023-04-29T12:36:18;17.00;;;15.23;;
2542;SDS011;1116;51.502;7.414;2023-04-29T12:38:51;16.30;;;14.80;;
2542;SDS011;1116;51.502;7.414;2023-04-29T12:41:35;16.17;;;14.53;;
2542;SDS011;1116;51.502;7.414;2023-04-29T12:44:06;19.07;;;16.27;;
2542;SDS011;1116;51.502;7.414;2023-04-29T12:46:38;16.77;;;15.17;;
2542;SDS011;1116;51.502;7.414;2023-04-29T12:49:13;17.60;;;15.80;;
2542;SDS011;1116;51.502;7.414;2023-04-29T12:51:47;17.10;;;15.30;;
2542;SDS011;1116;51.502;7.414;2023-04-29T12:54:20;16.30;;;14.60;;
2542;SDS011;1116;51.502;7.414;2023-04-29T12:56:53;16.20;;;14.70;;
2542;SDS011;1116;51.502;7.414;2023-04-29T12:59:24;17.63;;;14.33;;
2542;SDS011;1116;51.502;7.414;2023-04-29T13:01:58;16.40;;;14.77;;
2542;SDS011;1116;51.502;7.414;2023-04-29T13:04:29;16.67;;;15.03;;
2542;SDS011;1116;51.502;7.414;2023-04-29T13:07:00;17.20;;;15.43;;
2542;SDS011;1116;51.502;7.414;2023-04-29T13:09:34;15.80;;;14.30;;
2542;SDS011;1116;51.502;7.414;2023-04-29T13:12:08;15.60;;;14.00;;
2542;SDS011;1116;51.502;7.414;2023-04-29T13:14:39;16.03;;;14.53;;
2542;SDS011;1116;51.502;7.414;2023-04-29T13:17:09;17.27;;;15.47;;
2542;SDS011;1116;51.502;7.414;2023-04-29T13:19:41;16.83;;;14.60;;
2542;SDS011;1116;51.502;7.414;2023-04-29T13:22:18;16.77;;;15.17;;
2542;SDS011;1116;51.502;7.414;2023-04-29T13:24:52;15.37;;;13.73;;
2542;SDS011;1116;51.502;7.414;2023-04-29T13:27:23;16.63;;;15.00;;
2542;SDS011;1116;51.502;7.414;2023-04-29T13:29:57;17.17;;;15.13;;
2542;SDS011;1116;51.502;7.414;2023-04-29T13:32:28;18.23;;;14.30;;
2542;SDS011;1116;51.502;7.414;2023-04-29T13:35:15;16.13;;;14.43;;
2542;SDS011;1116;51.502;7.414;2023-04-29T13:37:46;16.13;;;14.57;;
2542;SDS011;1116;51.502;7.414;2023-04-29T13:40:20;15.73;;;14.17;;
2542;SDS011;1116;51.502;7.414;2023-04-29T13:42:54;16.27;;;14.57;;
2542;SDS011;1116;51.502;7.414;2023-04-29T13:45:35;14.83;;;13.43;;
2542;SDS011;1116;51.502;7.414;2023-04-29T13:48:14;15.90;;;14.40;;
2542;SDS011;1116;51.502;7.414;2023-04-29T13:51:09;14.90;;;13.53;;
2542;SDS011;1116;51.502;7.414;2023-04-29T13:54:05;16.80;;;14.83;;
2542;SDS011;1116;51.502;7.414;2023-04-29T13:57:00;14.70;;;13.13;;
2542;SDS011;1116;51.502;7.414;2023-04-29T13:59:38;15.20;;;13.70;;
2542;SDS011;1116;51.502;7.414;2023-04-29T14:02:19;15.30;;;13.87;;
2542;SDS011;1116;51.502;7.414;2023-04-29T14:04:53;13.67;;;12.33;;
2542;SDS011;1116;51.502;7.414;2023-04-29T14:07:24;13.00;;;11.70;;
2542;SDS011;1116;51.502;7.414;2023-04-29T14:09:55;14.30;;;13.00;;
2542;SDS011;1116;51.502;7.414;2023-04-29T14:12:29;12.57;;;11.37;;
2542;SDS011;1116;51.502;7.414;2023-04-29T14:14:59;13.10;;;11.80;;
2542;SDS011;1116;51.502;7.414;2023-04-29T14:17:30;12.43;;;11.13;;
2542;SDS011;1116;51.502;7.414;2023-04-29T14:20:03;12.23;;;11.03;;
2542;SDS011;1116;51.502;7.414;2023-04-29T14:22:35;12.60;;;11.40;;
2542;SDS011;1116;51.502;7.414;2023-04-29T14:25:06;14.10;;;12.50;;
2542;SDS011;1116;51.502;7.414;2023-04-29T14:27:41;13.77;;;12.37;;
2542;SDS011;1116;51.502;7.414;2023-04-29T14:30:12;13.37;;;11.90;;
2542;SDS011;1116;51.502;7.414;2023-04-29T14:32:43;14.27;;;12.10;;
2542;SDS011;1116;51.502;7.414;2023-04-29T14:35:15;12.80;;;11.60;;
2542;SDS011;1116;51.502;7.414;2023-04-29T14:37:46;13.03;;;11.73;;
2542;SDS011;1116;51.502;7.414;2023-04-29T14:40:17;14.30;;;12.80;;
2542;SDS011;1116;51.502;7.414;2023-04-29T14:42:53;13.13;;;11.60;;
2542;SDS011;1116;51.502;7.414;2023-04-29T14:45:24;12.43;;;11.23;;
2542;SDS011;1116;51.502;7.414;2023-04-29T14:47:55;14.30;;;12.90;;
2542;SDS011;1116;51.502;7.414;2023-04-29T14:50:26;12.83;;;11.53;;
2542;SDS011;1116;51.502;7.414;2023-04-29T14:52:57;13.40;;;12.10;;
2542;SDS011;1116;51.502;7.414;2023-04-29T14:55:29;16.60;;;13.10;;
2542;SDS011;1116;51.502;7.414;2023-04-29T14:58:03;13.30;;;12.00;;
2542;SDS011;1116;51.502;7.414;2023-04-29T15:00:35;12.53;;;11.33;;
2542;SDS011;1116;51.502;7.414;2023-04-29T15:03:06;12.73;;;11.50;;
2542;SDS011;1116;51.502;7.414;2023-04-29T15:05:48;13.80;;;12.50;;
2542;SDS011;1116;51.502;7.414;2023-04-29T15:08:20;12.57;;;11.23;;
2542;SDS011;1116;51.502;7.414;2023-04-29T15:10:51;13.47;;;12.00;;
2542;SDS011;1116;51.502;7.414;2023-04-29T15:13:24;11.80;;;10.80;;
2542;SDS011;1116;51.502;7.414;2023-04-29T15:15:58;11.63;;;10.43;;
2542;SDS011;1116;51.502;7.414;2023-04-29T15:18:29;10.57;;;9.20;;
2542;SDS011;1116;51.502;7.414;2023-04-29T15:21:00;10.80;;;9.70;;
2542;SDS011;1116;51.502;7.414;2023-04-29T15:23:31;10.23;;;9.13;;
2542;SDS011;1116;51.502;7.414;2023-04-29T15:26:02;9.63;;;8.70;;
2542;SDS011;1116;51.502;7.414;2023-04-29T15:28:36;11.53;;;9.40;;
2542;SDS011;1116;51.502;7.414;2023-04-29T15:31:07;10.60;;;9.50;;